createdAt,value
2018-03-18T00:02:30.765Z,-3.70
2018-03-18T00:05:00.548Z,-3.70
2018-03-18T00:07:30.494Z,-3.80
2018-03-18T00:09:59.969Z,-3.80
2018-03-18T00:12:29.105Z,-3.80
2018-03-18T00:14:58.541Z,-3.70
2018-03-18T00:17:28.931Z,-3.70
2018-03-18T00:19:58.049Z,-3.80
2018-03-18T00:22:28.040Z,-3.80
2018-03-18T00:24:57.714Z,-3.80
2018-03-18T00:27:28.315Z,-3.90
2018-03-18T00:29:57.777Z,-3.90
2018-03-18T00:32:27.208Z,-3.90
2018-03-18T00:34:56.580Z,-3.90
2018-03-18T00:37:26.739Z,-3.90
2018-03-18T00:39:56.860Z,-3.90
2018-03-18T00:42:27.417Z,-3.90
2018-03-18T00:44:57.259Z,-3.80
2018-03-18T00:47:26.972Z,-3.80
2018-03-18T00:49:56.220Z,-3.80
2018-03-18T00:52:26.618Z,-3.80
2018-03-18T00:54:56.607Z,-3.80
2018-03-18T00:57:26.389Z,-3.90
2018-03-18T00:59:56.288Z,-3.90
2018-03-18T01:02:26.297Z,-3.70
2018-03-18T01:04:55.375Z,-3.80
2018-03-18T01:07:25.027Z,-3.80
2018-03-18T01:09:55.193Z,-3.80
2018-03-18T01:12:24.439Z,-3.80
2018-03-18T01:14:54.758Z,-3.80
2018-03-18T01:17:24.842Z,-3.80
2018-03-18T01:19:56.040Z,-3.90
2018-03-18T01:22:25.294Z,-3.90
2018-03-18T01:24:55.498Z,-3.90
2018-03-18T01:27:24.846Z,-3.80
2018-03-18T01:29:55.178Z,-3.90
2018-03-18T01:32:24.952Z,-3.90
2018-03-18T01:34:55.245Z,-3.90
2018-03-18T01:37:24.972Z,-4.00
2018-03-18T01:39:55.559Z,-3.90
2018-03-18T01:42:25.025Z,-3.80
2018-03-18T01:44:54.767Z,-3.80
2018-03-18T01:47:23.326Z,-3.90
2018-03-18T01:49:52.910Z,-3.80
2018-03-18T01:52:21.874Z,-3.80
2018-03-18T01:54:50.680Z,-3.80
2018-03-18T01:57:19.624Z,-3.90
2018-03-18T01:59:49.295Z,-3.80
2018-03-18T02:02:18.192Z,-4.00
2018-03-18T02:04:47.421Z,-3.90
2018-03-18T02:07:15.755Z,-4.00
2018-03-18T02:09:44.400Z,-4.00
2018-03-18T02:12:13.950Z,-4.00
2018-03-18T02:14:42.864Z,-3.90
2018-03-18T02:17:12.465Z,-3.90
2018-03-18T02:19:41.737Z,-4.00
2018-03-18T02:22:11.512Z,-4.00
2018-03-18T02:24:40.462Z,-3.90
2018-03-18T02:27:10.027Z,-3.90
2018-03-18T02:29:39.150Z,-3.90
2018-03-18T02:32:07.645Z,-3.90
2018-03-18T02:34:36.188Z,-3.90
2018-03-18T02:37:04.756Z,-4.00
2018-03-18T02:39:34.276Z,-4.10
2018-03-18T02:42:03.924Z,-4.00
2018-03-18T02:44:33.268Z,-4.10
2018-03-18T02:47:02.401Z,-4.00
2018-03-18T02:49:30.868Z,-4.00
2018-03-18T02:51:59.801Z,-4.10
2018-03-18T02:54:29.197Z,-4.20
2018-03-18T02:56:57.654Z,-4.20
2018-03-18T02:59:26.038Z,-4.10
2018-03-18T03:01:54.432Z,-4.20
2018-03-18T03:04:23.593Z,-4.20
2018-03-18T03:06:51.948Z,-4.20
2018-03-18T03:09:21.672Z,-4.10
2018-03-18T03:11:50.379Z,-4.20
2018-03-18T03:14:19.522Z,-4.10
2018-03-18T03:16:47.896Z,-4.10
2018-03-18T03:19:16.860Z,-4.20
2018-03-18T03:21:45.345Z,-4.20
2018-03-18T03:24:14.728Z,-4.20
2018-03-18T03:26:44.132Z,-4.30
2018-03-18T03:29:12.473Z,-4.30
2018-03-18T03:31:42.423Z,-4.30
2018-03-18T03:34:11.004Z,-4.30
2018-03-18T03:36:39.897Z,-4.30
2018-03-18T03:39:08.667Z,-4.20
2018-03-18T03:41:38.263Z,-4.30
2018-03-18T03:44:06.526Z,-4.20
2018-03-18T03:46:35.273Z,-4.20
2018-03-18T03:49:04.251Z,-4.10
2018-03-18T03:51:33.119Z,-4.10
2018-03-18T03:54:01.275Z,-4.20
2018-03-18T03:56:30.099Z,-4.30
2018-03-18T03:58:59.982Z,-4.20
2018-03-18T04:01:28.658Z,-4.20
2018-03-18T04:03:57.853Z,-4.20
2018-03-18T04:06:26.470Z,-4.20
2018-03-18T04:08:55.146Z,-4.20
2018-03-18T04:11:23.564Z,-4.20
2018-03-18T04:13:53.851Z,-4.40
2018-03-18T04:16:23.044Z,-4.40
2018-03-18T04:18:51.664Z,-4.40
2018-03-18T04:21:20.084Z,-4.50
2018-03-18T04:23:48.666Z,-4.50
2018-03-18T04:26:17.601Z,-4.50
2018-03-18T04:28:45.930Z,-4.50
2018-03-18T04:31:14.641Z,-4.70
2018-03-18T04:33:43.360Z,-4.60
2018-03-18T04:36:12.499Z,-4.60
2018-03-18T04:38:41.152Z,-4.60
2018-03-18T04:41:10.820Z,-4.50
2018-03-18T04:43:39.201Z,-4.50
2018-03-18T04:46:09.427Z,-4.50
2018-03-18T04:48:37.607Z,-4.50
2018-03-18T04:51:05.778Z,-4.70
2018-03-18T04:53:34.722Z,-4.60
2018-03-18T04:56:03.857Z,-4.50
2018-03-18T04:58:32.226Z,-4.50
2018-03-18T05:01:00.909Z,-4.60
2018-03-18T05:03:29.455Z,-4.60
2018-03-18T05:05:58.207Z,-4.70
2018-03-18T05:08:26.761Z,-4.70
2018-03-18T05:10:56.163Z,-4.70
2018-03-18T05:13:25.062Z,-4.80
2018-03-18T05:15:53.635Z,-4.80
2018-03-18T05:18:22.212Z,-4.70
2018-03-18T05:20:50.855Z,-4.70
2018-03-18T05:23:19.707Z,-4.70
2018-03-18T05:25:49.216Z,-4.90
2018-03-18T05:28:18.366Z,-4.80
2018-03-18T05:30:47.104Z,-4.80
2018-03-18T05:33:15.755Z,-4.80
2018-03-18T05:35:44.539Z,-4.80
2018-03-18T05:38:13.749Z,-4.80
2018-03-18T05:40:42.840Z,-4.70
2018-03-18T05:43:12.053Z,-4.80
2018-03-18T05:45:40.650Z,-5.00
2018-03-18T05:48:09.414Z,-5.00
2018-03-18T05:50:39.333Z,-4.90
2018-03-18T05:53:08.002Z,-5.00
2018-03-18T05:55:37.310Z,-5.00
2018-03-18T05:58:07.761Z,-5.10
2018-03-18T06:00:36.494Z,-5.10
2018-03-18T06:03:06.673Z,-4.90
2018-03-18T06:05:35.943Z,-4.90
2018-03-18T06:08:04.769Z,-4.90
2018-03-18T06:10:35.530Z,-5.00
2018-03-18T06:13:04.876Z,-4.90
2018-03-18T06:15:33.865Z,-4.90
2018-03-18T06:18:02.817Z,-4.90
2018-03-18T06:20:32.150Z,-5.00
2018-03-18T06:23:00.819Z,-5.00
2018-03-18T06:25:30.602Z,-5.10
2018-03-18T06:28:00.869Z,-4.90
2018-03-18T06:30:29.455Z,-4.90
2018-03-18T06:32:58.651Z,-5.00
2018-03-18T06:35:28.047Z,-5.00
2018-03-18T06:37:58.596Z,-4.90
2018-03-18T06:40:28.912Z,-5.10
2018-03-18T06:42:57.540Z,-5.10
2018-03-18T06:45:28.107Z,-4.80
2018-03-18T06:47:56.962Z,-4.90
2018-03-18T06:50:27.277Z,-4.70
2018-03-18T06:52:57.002Z,-4.80
2018-03-18T06:55:25.531Z,-4.90
2018-03-18T06:57:54.367Z,-4.80
2018-03-18T07:00:24.069Z,-4.60
2018-03-18T07:02:53.730Z,-4.70
2018-03-18T07:05:22.878Z,-4.70
2018-03-18T07:07:53.851Z,-4.40
2018-03-18T07:10:23.503Z,-4.40
2018-03-18T07:12:54.060Z,-4.50
2018-03-18T07:15:23.098Z,-4.60
2018-03-18T07:17:52.922Z,-4.60
2018-03-18T07:20:22.558Z,-4.50
2018-03-18T07:22:53.302Z,-4.30
2018-03-18T07:25:23.237Z,-4.10
2018-03-18T07:27:52.558Z,-4.20
2018-03-18T07:30:22.045Z,-4.00
2018-03-18T07:32:52.871Z,-3.80
2018-03-18T07:35:22.934Z,-3.70
2018-03-18T07:37:52.754Z,-3.60
2018-03-18T07:40:22.561Z,-3.50
2018-03-18T07:42:52.594Z,-3.00
2018-03-18T07:45:23.178Z,-3.00
2018-03-18T07:47:53.054Z,-3.00
2018-03-18T07:50:22.883Z,-2.90
2018-03-18T07:52:53.016Z,-3.10
2018-03-18T07:55:21.981Z,-3.20
2018-03-18T07:57:51.047Z,-2.50
2018-03-18T08:00:20.185Z,-2.20
2018-03-18T08:02:49.812Z,-2.00
2018-03-18T08:05:19.190Z,-2.30
2018-03-18T08:07:49.105Z,-2.40
2018-03-18T08:10:18.678Z,-2.50
2018-03-18T08:12:48.782Z,-3.10
2018-03-18T08:15:17.987Z,-3.10
2018-03-18T08:17:47.362Z,-3.40
2018-03-18T08:20:17.644Z,-3.50
2018-03-18T08:22:47.480Z,-3.40
2018-03-18T08:25:16.726Z,-3.40
2018-03-18T08:27:45.874Z,-3.10
2018-03-18T08:30:16.410Z,-3.40
2018-03-18T08:32:45.386Z,-3.40
2018-03-18T08:35:15.484Z,-3.40
2018-03-18T08:37:44.839Z,-3.30
2018-03-18T08:40:15.633Z,-3.30
2018-03-18T08:42:45.688Z,-3.30
2018-03-18T08:45:14.897Z,-2.70
2018-03-18T08:47:43.928Z,-2.40
2018-03-18T08:50:13.104Z,-2.20
2018-03-18T08:52:43.019Z,-2.30
2018-03-18T08:55:13.408Z,-2.00
2018-03-18T08:57:42.770Z,-2.00
2018-03-18T09:00:12.424Z,-1.90
2018-03-18T09:02:41.839Z,-2.10
2018-03-18T09:05:11.943Z,-0.90
2018-03-18T09:07:41.036Z,-0.90
2018-03-18T09:10:10.212Z,-0.50
2018-03-18T09:12:40.094Z,-0.50
2018-03-18T09:15:09.726Z,-1.00
2018-03-18T09:17:38.827Z,-1.30
2018-03-18T09:20:08.457Z,-1.90
2018-03-18T09:22:37.802Z,-1.80
2018-03-18T09:25:07.819Z,-1.70
2018-03-18T09:27:37.094Z,-1.80
2018-03-18T09:30:06.394Z,-1.80
2018-03-18T09:32:35.463Z,-1.90
2018-03-18T09:35:04.773Z,-1.90
2018-03-18T09:37:34.026Z,-2.10
2018-03-18T09:40:03.336Z,-2.00
2018-03-18T09:42:32.506Z,-2.20
2018-03-18T09:45:01.544Z,-2.10
2018-03-18T09:47:31.209Z,-2.00
2018-03-18T09:50:00.149Z,-1.70
2018-03-18T09:52:29.746Z,-1.80
2018-03-18T09:54:59.012Z,-1.90
2018-03-18T09:57:28.060Z,-1.90
2018-03-18T09:59:58.476Z,-2.20
2018-03-18T10:02:27.507Z,-2.20
2018-03-18T10:04:57.256Z,-2.20
2018-03-18T10:07:26.335Z,-2.20
2018-03-18T10:09:55.227Z,-1.90
2018-03-18T10:12:24.287Z,-2.10
2018-03-18T10:14:53.275Z,-2.30
2018-03-18T10:17:22.116Z,-2.30
2018-03-18T10:19:51.257Z,-2.10
2018-03-18T10:22:20.303Z,-2.30
2018-03-18T10:24:49.264Z,-1.90
2018-03-18T10:27:18.252Z,-2.10
2018-03-18T10:29:48.488Z,-2.00
2018-03-18T10:32:17.733Z,-2.00
2018-03-18T10:34:47.935Z,-1.80
2018-03-18T10:37:17.389Z,-1.90
2018-03-18T10:39:47.635Z,-2.00
2018-03-18T10:42:16.652Z,-1.80
2018-03-18T10:44:45.705Z,-1.70
2018-03-18T10:47:15.943Z,-1.70
2018-03-18T10:49:45.120Z,-1.70
2018-03-18T10:52:15.098Z,-1.40
2018-03-18T10:54:44.429Z,-1.30
2018-03-18T10:57:13.281Z,-1.60
2018-03-18T10:59:44.161Z,-1.70
2018-03-18T11:02:14.889Z,-1.60
2018-03-18T11:04:44.624Z,-1.50
2018-03-18T11:07:14.296Z,-1.50
2018-03-18T11:09:43.651Z,-1.60
2018-03-18T11:12:12.862Z,-1.30
2018-03-18T11:14:42.328Z,-1.50
2018-03-18T11:17:11.326Z,-1.60
2018-03-18T11:19:40.397Z,-1.70
2018-03-18T11:22:10.410Z,-1.80
2018-03-18T11:24:39.316Z,-1.80
2018-03-18T11:27:08.608Z,-2.10
2018-03-18T11:29:38.428Z,-2.00
2018-03-18T11:32:08.215Z,-1.80
2018-03-18T11:34:37.108Z,-1.80
2018-03-18T11:37:06.081Z,-1.80
2018-03-18T11:39:35.104Z,-2.00
2018-03-18T11:42:05.813Z,-2.00
2018-03-18T11:44:34.891Z,-2.10
2018-03-18T11:47:04.360Z,-1.80
2018-03-18T11:49:33.701Z,-2.00
2018-03-18T11:52:02.771Z,-1.90
2018-03-18T11:54:31.918Z,-1.60
2018-03-18T11:57:00.994Z,-1.40
2018-03-18T11:59:30.875Z,-1.80
2018-03-18T12:01:59.762Z,-2.00
2018-03-18T12:04:28.621Z,-1.90
2018-03-18T12:06:58.449Z,-1.80
2018-03-18T12:09:27.469Z,-1.80
2018-03-18T12:11:57.293Z,-1.70
2018-03-18T12:14:26.286Z,-1.70
2018-03-18T12:16:56.238Z,-1.10
2018-03-18T12:19:25.472Z,-1.10
2018-03-18T12:21:54.642Z,-1.20
2018-03-18T12:24:24.857Z,-1.60
2018-03-18T12:26:54.686Z,-1.80
2018-03-18T12:29:23.566Z,-1.80
2018-03-18T12:31:52.681Z,-1.70
2018-03-18T12:34:21.748Z,-1.90
2018-03-18T12:36:51.381Z,-1.80
2018-03-18T12:39:21.288Z,-1.80
2018-03-18T12:41:50.486Z,-1.80
2018-03-18T12:44:21.262Z,-2.00
2018-03-18T12:46:51.024Z,-2.20
2018-03-18T12:49:21.505Z,-1.70
2018-03-18T12:51:50.573Z,-1.80
2018-03-18T12:54:19.945Z,-1.60
2018-03-18T12:56:48.743Z,-1.50
2018-03-18T12:59:17.952Z,-1.70
2018-03-18T13:01:46.786Z,-1.80
2018-03-18T13:04:16.242Z,-1.30
2018-03-18T13:06:45.187Z,-1.70
2018-03-18T13:09:14.060Z,-1.80
2018-03-18T13:11:43.101Z,-1.40
2018-03-18T13:14:12.254Z,-1.40
2018-03-18T13:16:41.555Z,-1.30
2018-03-18T13:19:10.420Z,-1.30
2018-03-18T13:21:40.000Z,-1.40
2018-03-18T13:24:09.699Z,-1.40
2018-03-18T13:26:39.432Z,-1.40
2018-03-18T13:29:08.220Z,-1.40
2018-03-18T13:31:37.007Z,-1.20
2018-03-18T13:34:06.260Z,-1.00
2018-03-18T13:36:35.320Z,-1.60
2018-03-18T13:39:05.213Z,-1.60
2018-03-18T13:41:34.128Z,-1.60
2018-03-18T13:44:03.933Z,-1.20
2018-03-18T13:46:35.610Z,-1.20
2018-03-18T13:49:05.240Z,-1.20
2018-03-18T13:51:35.200Z,-1.40
2018-03-18T13:54:05.274Z,-1.40
2018-03-18T13:56:34.748Z,-1.60
2018-03-18T13:59:03.583Z,-1.60
2018-03-18T14:01:33.683Z,-1.60
2018-03-18T14:04:03.264Z,-1.50
2018-03-18T14:06:32.381Z,-1.50
2018-03-18T14:09:02.140Z,-1.10
2018-03-18T14:11:30.980Z,-1.10
2018-03-18T14:14:00.463Z,-1.20
2018-03-18T14:16:29.497Z,-1.30
2018-03-18T14:18:59.140Z,-1.20
2018-03-18T14:21:28.188Z,-1.20
2018-03-18T14:23:57.900Z,-1.20
2018-03-18T14:26:27.511Z,-1.20
2018-03-18T14:28:57.327Z,-1.10
2018-03-18T14:31:26.774Z,-1.10
2018-03-18T14:33:56.772Z,-1.40
2018-03-18T14:36:25.704Z,-1.40
2018-03-18T14:38:54.523Z,-1.20
2018-03-18T14:41:24.180Z,-1.00
2018-03-18T14:43:53.280Z,-1.00
2018-03-18T14:46:22.479Z,-1.10
2018-03-18T14:48:52.056Z,-1.20
2018-03-18T14:51:21.538Z,-1.10
2018-03-18T14:53:51.278Z,-1.00
2018-03-18T14:56:20.842Z,-1.00
2018-03-18T14:58:50.554Z,-1.60
2018-03-18T15:01:20.334Z,-1.60
2018-03-18T15:03:49.151Z,-1.60
2018-03-18T15:06:18.612Z,-1.70
2018-03-18T15:08:47.959Z,-1.70
2018-03-18T15:11:18.170Z,-1.40
2018-03-18T15:13:47.596Z,-1.40
2018-03-18T15:16:16.378Z,-1.30
2018-03-18T15:18:45.046Z,-1.30
2018-03-18T15:21:14.557Z,-1.40
2018-03-18T15:23:44.050Z,-1.60
2018-03-18T15:26:12.853Z,-1.70
2018-03-18T15:28:42.378Z,-1.90
2018-03-18T15:31:11.397Z,-1.90
2018-03-18T15:33:40.106Z,-1.60
2018-03-18T15:36:08.924Z,-1.80
2018-03-18T15:38:39.354Z,-1.60
2018-03-18T15:41:08.862Z,-1.50
2018-03-18T15:43:38.352Z,-1.50
2018-03-18T15:46:07.789Z,-1.50
2018-03-18T15:48:36.672Z,-1.50
2018-03-18T15:51:05.838Z,-1.70
2018-03-18T15:53:35.244Z,-1.70
2018-03-18T15:56:04.893Z,-2.00
2018-03-18T15:58:33.688Z,-2.10
2018-03-18T16:01:02.335Z,-2.00
2018-03-18T16:03:31.598Z,-2.00
2018-03-18T16:06:00.791Z,-2.10
2018-03-18T16:08:30.423Z,-2.20
2018-03-18T16:11:00.017Z,-2.20
2018-03-18T16:13:29.327Z,-2.20
2018-03-18T16:15:58.638Z,-2.30
2018-03-18T16:18:28.813Z,-2.40
2018-03-18T16:20:58.117Z,-2.40
2018-03-18T16:23:26.992Z,-2.50
2018-03-18T16:25:55.778Z,-2.40
2018-03-18T16:28:24.847Z,-2.50
2018-03-18T16:31:10.181Z,-2.50
2018-03-18T16:33:38.753Z,-2.50
2018-03-18T16:36:07.408Z,-2.50
2018-03-18T16:38:36.161Z,-2.40
2018-03-18T16:41:04.768Z,-2.40
2018-03-18T16:43:34.369Z,-2.40
2018-03-18T16:46:03.117Z,-2.50
2018-03-18T16:48:31.897Z,-2.50
2018-03-18T16:51:01.364Z,-2.60
2018-03-18T16:53:30.169Z,-2.60
2018-03-18T16:55:58.966Z,-2.60
2018-03-18T16:58:27.769Z,-2.50
2018-03-18T17:00:56.623Z,-2.50
2018-03-18T17:03:25.584Z,-2.50
2018-03-18T17:05:54.886Z,-2.60
2018-03-18T17:08:23.779Z,-2.60
2018-03-18T17:10:52.693Z,-2.60
2018-03-18T17:13:21.571Z,-2.60
2018-03-18T17:15:50.192Z,-2.50
2018-03-18T17:18:19.257Z,-2.50
2018-03-18T17:20:48.562Z,-2.50
2018-03-18T17:23:17.180Z,-2.40
2018-03-18T17:25:47.948Z,-2.70
2018-03-18T17:28:16.439Z,-2.70
2018-03-18T17:30:45.211Z,-2.50
2018-03-18T17:33:14.711Z,-2.50
2018-03-18T17:35:44.161Z,-2.50
2018-03-18T17:38:12.949Z,-2.60
2018-03-18T17:40:42.894Z,-2.60
2018-03-18T17:43:11.652Z,-2.60
2018-03-18T17:47:54.082Z,-2.50
2018-03-18T17:50:31.998Z,-2.60
2018-03-18T17:53:11.722Z,-2.60
2018-03-18T17:55:40.703Z,-2.60
2018-03-18T17:58:09.487Z,-2.60
2018-03-18T18:00:38.188Z,-2.70
2018-03-18T18:03:06.763Z,-2.60
2018-03-18T18:05:35.306Z,-2.60
2018-03-18T18:08:05.141Z,-2.60
2018-03-18T18:10:34.081Z,-2.70
2018-03-18T18:13:02.808Z,-2.60
2018-03-18T18:15:31.721Z,-2.60
2018-03-18T18:18:00.611Z,-2.60
2018-03-18T18:20:29.586Z,-2.70
2018-03-18T18:22:59.179Z,-2.80
2018-03-18T18:25:27.909Z,-2.80
2018-03-18T18:27:56.745Z,-2.70
2018-03-18T18:30:26.254Z,-2.60
2018-03-18T18:32:55.765Z,-2.70
2018-03-18T18:35:24.447Z,-2.70
2018-03-18T18:37:53.074Z,-2.70
2018-03-18T18:40:21.857Z,-2.80
2018-03-18T18:42:51.255Z,-2.80
2018-03-18T18:45:20.576Z,-2.80
2018-03-18T18:47:49.601Z,-2.80
2018-03-18T18:50:19.135Z,-2.80
2018-03-18T18:52:47.991Z,-2.80
2018-03-18T18:55:17.358Z,-2.90
2018-03-18T18:57:46.370Z,-2.80
2018-03-18T19:00:15.250Z,-2.80
2018-03-18T19:02:44.072Z,-2.80
2018-03-18T19:05:13.510Z,-3.00
2018-03-18T19:07:42.170Z,-3.00
2018-03-18T19:10:10.983Z,-2.90
2018-03-18T19:12:39.577Z,-2.80
2018-03-18T19:15:08.918Z,-2.90
2018-03-18T19:17:38.504Z,-3.00
2018-03-18T19:20:07.049Z,-2.90
2018-03-18T19:22:35.882Z,-3.00
2018-03-18T19:25:04.830Z,-3.00
2018-03-18T19:27:33.429Z,-3.00
2018-03-18T19:30:01.956Z,-3.00
2018-03-18T19:32:31.678Z,-3.00
2018-03-18T19:35:00.837Z,-3.00
2018-03-18T19:37:30.098Z,-3.00
2018-03-18T19:39:58.970Z,-3.00
2018-03-18T19:42:28.409Z,-2.90
2018-03-18T19:44:57.332Z,-2.90
2018-03-18T19:47:26.132Z,-2.90
2018-03-18T19:49:56.524Z,-3.00
2018-03-18T19:52:25.346Z,-3.00
2018-03-18T19:54:54.683Z,-3.10
2018-03-18T19:57:23.441Z,-3.10
2018-03-18T19:59:54.716Z,-3.10
2018-03-18T20:02:23.613Z,-3.10
2018-03-18T20:04:52.348Z,-3.10
2018-03-18T20:07:22.036Z,-3.20
2018-03-18T20:09:51.566Z,-3.20
2018-03-18T20:12:21.030Z,-3.10
2018-03-18T20:14:50.218Z,-3.10
2018-03-18T20:17:18.979Z,-3.10
2018-03-18T20:19:48.062Z,-3.20
2018-03-18T20:22:17.167Z,-3.10
2018-03-18T20:24:46.065Z,-3.20
2018-03-18T20:27:15.914Z,-3.20
2018-03-18T20:29:44.648Z,-3.20
2018-03-18T20:32:14.272Z,-3.30
2018-03-18T20:34:43.057Z,-3.30
2018-03-18T20:37:12.494Z,-3.30
2018-03-18T20:39:41.120Z,-3.30
2018-03-18T20:42:10.269Z,-3.30
2018-03-18T20:44:39.216Z,-3.30
2018-03-18T20:47:08.204Z,-3.40
2018-03-18T20:49:38.710Z,-3.40
2018-03-18T20:52:07.760Z,-3.40
2018-03-18T20:54:36.483Z,-3.40
2018-03-18T20:57:06.099Z,-3.40
2018-03-18T20:59:34.757Z,-3.40
2018-03-18T21:02:04.422Z,-3.40
2018-03-18T21:04:33.215Z,-3.40
2018-03-18T21:07:02.140Z,-3.40
2018-03-18T21:09:31.301Z,-3.40
2018-03-18T21:12:00.484Z,-3.40
2018-03-18T21:14:30.222Z,-3.40
2018-03-18T21:16:58.904Z,-3.40
2018-03-18T21:19:28.035Z,-3.40
2018-03-18T21:21:57.914Z,-3.40
2018-03-18T21:24:26.743Z,-3.40
2018-03-18T21:26:55.603Z,-3.50
2018-03-18T21:29:24.475Z,-3.40
2018-03-18T21:31:53.854Z,-3.40
2018-03-18T21:34:32.112Z,-3.40
2018-03-18T21:37:01.342Z,-3.40
2018-03-18T21:39:30.777Z,-3.30
2018-03-18T21:42:01.001Z,-3.30
2018-03-18T21:44:30.409Z,-3.30
2018-03-18T21:47:00.273Z,-3.40
2018-03-18T21:49:29.133Z,-3.40
2018-03-18T21:51:58.215Z,-3.40
2018-03-18T21:54:28.630Z,-3.40
2018-03-18T21:56:57.621Z,-3.40
2018-03-18T21:59:27.428Z,-3.50
2018-03-18T22:01:57.290Z,-3.60
2018-03-18T22:04:27.166Z,-3.60
2018-03-18T22:06:56.557Z,-3.60
2018-03-18T22:09:25.819Z,-3.60
2018-03-18T22:11:55.095Z,-3.60
2018-03-18T22:14:23.977Z,-3.60
2018-03-18T22:16:53.348Z,-3.60
2018-03-18T22:19:22.557Z,-3.60
2018-03-18T22:21:51.455Z,-3.60
2018-03-18T22:24:20.672Z,-3.70
2018-03-18T22:26:49.539Z,-3.70
2018-03-18T22:29:19.311Z,-3.70
2018-03-18T22:31:49.358Z,-3.60
2018-03-18T22:34:18.640Z,-3.60
2018-03-18T22:36:47.945Z,-3.70
2018-03-18T22:39:17.895Z,-3.60
2018-03-18T22:41:48.059Z,-3.60
2018-03-18T22:44:18.442Z,-3.70
2018-03-18T22:46:48.078Z,-3.70
2018-03-18T22:49:17.201Z,-3.70
2018-03-18T22:51:47.556Z,-3.60
2018-03-18T22:54:17.875Z,-3.60
2018-03-18T22:56:47.053Z,-3.50
2018-03-18T22:59:17.347Z,-3.60
2018-03-18T23:01:48.358Z,-3.60
2018-03-18T23:04:18.578Z,-3.60
2018-03-18T23:06:49.281Z,-3.50
2018-03-18T23:09:18.485Z,-3.60
2018-03-18T23:11:47.425Z,-3.60
2018-03-18T23:14:16.612Z,-3.60
2018-03-18T23:16:46.807Z,-3.60
2018-03-18T23:19:16.423Z,-3.70
2018-03-18T23:21:45.461Z,-3.70
2018-03-18T23:24:16.111Z,-3.60
2018-03-18T23:26:45.753Z,-3.70
2018-03-18T23:29:14.974Z,-3.70
2018-03-18T23:31:44.492Z,-3.70
2018-03-18T23:34:14.845Z,-3.70
2018-03-18T23:36:43.934Z,-3.70
2018-03-18T23:39:14.778Z,-3.80
2018-03-18T23:41:45.107Z,-3.80
2018-03-18T23:44:14.482Z,-3.80
2018-03-18T23:46:44.262Z,-3.80
2018-03-18T23:49:14.618Z,-3.90
2018-03-18T23:51:45.394Z,-4.00
2018-03-18T23:54:15.108Z,-4.00
2018-03-18T23:56:44.409Z,-4.00
2018-03-18T23:59:13.910Z,-4.00
